sensor_id;sensor_type;location;lat;lon;timestamp;P1;durP1;ratioP1;P2;durP2;ratioP2
7444;SDS011;3764;48.126;11.594;2024-01-30T00:01:24;13.75;;;9.30;;
7444;SDS011;3764;48.126;11.594;2024-01-30T00:03:51;12.13;;;7.82;;
7444;SDS011;3764;48.126;11.594;2024-01-30T00:06:20;14.45;;;8.80;;
7444;SDS011;3764;48.126;11.594;2024-01-30T00:08:47;10.90;;;9.32;;
7444;SDS011;3764;48.126;11.594;2024-01-30T00:11:15;11.70;;;8.70;;
7444;SDS011;3764;48.126;11.594;2024-01-30T00:13:42;15.95;;;9.60;;
7444;SDS011;3764;48.126;11.594;2024-01-30T00:16:19;13.68;;;9.25;;
7444;SDS011;3764;48.126;11.594;2024-01-30T00:18:47;13.05;;;8.60;;
7444;SDS011;3764;48.126;11.594;2024-01-30T00:21:14;13.93;;;9.13;;
7444;SDS011;3764;48.126;11.594;2024-01-30T00:23:42;14.32;;;9.45;;
7444;SDS011;3764;48.126;11.594;2024-01-30T00:26:10;13.90;;;9.32;;
7444;SDS011;3764;48.126;11.594;2024-01-30T00:28:37;15.52;;;9.40;;
7444;SDS011;3764;48.126;11.594;2024-01-30T00:31:05;12.60;;;8.70;;
7444;SDS011;3764;48.126;11.594;2024-01-30T00:33:32;13.80;;;7.95;;
7444;SDS011;3764;48.126;11.594;2024-01-30T00:35:59;13.77;;;7.13;;
7444;SDS011;3764;48.126;11.594;2024-01-30T00:38:26;12.48;;;7.68;;
7444;SDS011;3764;48.126;11.594;2024-01-30T00:40:55;10.38;;;6.97;;
7444;SDS011;3764;48.126;11.594;2024-01-30T00:43:22;9.27;;;6.75;;
7444;SDS011;3764;48.126;11.594;2024-01-30T00:45:50;11.18;;;7.70;;
7444;SDS011;3764;48.126;11.594;2024-01-30T00:48:17;11.18;;;6.28;;
7444;SDS011;3764;48.126;11.594;2024-01-30T00:50:45;9.57;;;7.05;;
7444;SDS011;3764;48.126;11.594;2024-01-30T00:53:12;11.07;;;6.03;;
7444;SDS011;3764;48.126;11.594;2024-01-30T00:55:39;9.38;;;5.85;;
7444;SDS011;3764;48.126;11.594;2024-01-30T00:58:08;9.75;;;6.65;;
7444;SDS011;3764;48.126;11.594;2024-01-30T01:00:35;10.68;;;6.60;;
7444;SDS011;3764;48.126;11.594;2024-01-30T01:03:02;8.40;;;6.35;;
7444;SDS011;3764;48.126;11.594;2024-01-30T01:05:30;9.05;;;6.40;;
7444;SDS011;3764;48.126;11.594;2024-01-30T01:07:57;9.57;;;5.30;;
7444;SDS011;3764;48.126;11.594;2024-01-30T01:10:24;6.05;;;5.45;;
7444;SDS011;3764;48.126;11.594;2024-01-30T01:12:52;7.53;;;5.85;;
7444;SDS011;3764;48.126;11.594;2024-01-30T01:15:21;8.93;;;7.07;;
7444;SDS011;3764;48.126;11.594;2024-01-30T01:17:48;12.57;;;6.90;;
7444;SDS011;3764;48.126;11.594;2024-01-30T01:20:15;7.40;;;5.85;;
7444;SDS011;3764;48.126;11.594;2024-01-30T01:22:42;9.93;;;6.20;;
7444;SDS011;3764;48.126;11.594;2024-01-30T01:25:09;8.63;;;6.15;;
7444;SDS011;3764;48.126;11.594;2024-01-30T01:27:36;8.98;;;6.03;;
7444;SDS011;3764;48.126;11.594;2024-01-30T01:30:07;10.73;;;7.07;;
7444;SDS011;3764;48.126;11.594;2024-01-30T01:32:38;12.00;;;6.90;;
7444;SDS011;3764;48.126;11.594;2024-01-30T01:35:10;9.48;;;6.45;;
7444;SDS011;3764;48.126;11.594;2024-01-30T01:37:37;11.63;;;6.20;;
7444;SDS011;3764;48.126;11.594;2024-01-30T01:40:05;7.05;;;5.60;;
7444;SDS011;3764;48.126;11.594;2024-01-30T01:42:33;8.30;;;5.75;;
7444;SDS011;3764;48.126;11.594;2024-01-30T01:45:01;7.75;;;6.10;;
7444;SDS011;3764;48.126;11.594;2024-01-30T01:47:28;9.18;;;6.60;;
7444;SDS011;3764;48.126;11.594;2024-01-30T01:49:57;8.95;;;6.38;;
7444;SDS011;3764;48.126;11.594;2024-01-30T01:52:24;8.35;;;5.85;;
7444;SDS011;3764;48.126;11.594;2024-01-30T01:54:52;12.50;;;6.30;;
7444;SDS011;3764;48.126;11.594;2024-01-30T01:57:19;9.63;;;6.65;;
7444;SDS011;3764;48.126;11.594;2024-01-30T01:59:47;9.50;;;6.15;;
7444;SDS011;3764;48.126;11.594;2024-01-30T02:02:14;6.97;;;5.70;;
7444;SDS011;3764;48.126;11.594;2024-01-30T02:04:45;6.68;;;5.45;;
7444;SDS011;3764;48.126;11.594;2024-01-30T02:07:14;9.45;;;6.72;;
7444;SDS011;3764;48.126;11.594;2024-01-30T02:09:41;10.30;;;5.53;;
7444;SDS011;3764;48.126;11.594;2024-01-30T02:12:09;9.63;;;6.35;;
7444;SDS011;3764;48.126;11.594;2024-01-30T02:14:43;7.80;;;5.97;;
7444;SDS011;3764;48.126;11.594;2024-01-30T02:17:11;10.10;;;6.00;;
7444;SDS011;3764;48.126;11.594;2024-01-30T02:19:38;8.45;;;6.10;;
7444;SDS011;3764;48.126;11.594;2024-01-30T02:22:07;11.32;;;6.70;;
7444;SDS011;3764;48.126;11.594;2024-01-30T02:24:34;8.75;;;6.10;;
7444;SDS011;3764;48.126;11.594;2024-01-30T02:27:01;7.28;;;5.75;;
7444;SDS011;3764;48.126;11.594;2024-01-30T02:29:29;6.75;;;5.82;;
7444;SDS011;3764;48.126;11.594;2024-01-30T02:31:56;8.50;;;5.45;;
7444;SDS011;3764;48.126;11.594;2024-01-30T02:34:23;7.55;;;6.07;;
7444;SDS011;3764;48.126;11.594;2024-01-30T02:36:50;8.48;;;5.43;;
7444;SDS011;3764;48.126;11.594;2024-01-30T02:39:19;7.78;;;5.35;;
7444;SDS011;3764;48.126;11.594;2024-01-30T02:41:46;9.32;;;6.55;;
7444;SDS011;3764;48.126;11.594;2024-01-30T02:44:13;6.45;;;5.82;;
7444;SDS011;3764;48.126;11.594;2024-01-30T02:46:41;8.23;;;6.05;;
7444;SDS011;3764;48.126;11.594;2024-01-30T02:49:08;9.80;;;6.60;;
7444;SDS011;3764;48.126;11.594;2024-01-30T02:51:35;7.47;;;5.65;;
7444;SDS011;3764;48.126;11.594;2024-01-30T02:54:02;8.00;;;5.75;;
7444;SDS011;3764;48.126;11.594;2024-01-30T02:56:31;8.02;;;5.80;;
7444;SDS011;3764;48.126;11.594;2024-01-30T02:58:58;7.05;;;5.72;;
7444;SDS011;3764;48.126;11.594;2024-01-30T03:01:25;8.40;;;5.72;;
7444;SDS011;3764;48.126;11.594;2024-01-30T03:03:52;8.57;;;5.82;;
7444;SDS011;3764;48.126;11.594;2024-01-30T03:06:19;10.05;;;5.88;;
7444;SDS011;3764;48.126;11.594;2024-01-30T03:08:48;8.10;;;5.45;;
7444;SDS011;3764;48.126;11.594;2024-01-30T03:11:15;8.65;;;6.35;;
7444;SDS011;3764;48.126;11.594;2024-01-30T03:13:44;7.22;;;5.28;;
7444;SDS011;3764;48.126;11.594;2024-01-30T03:16:11;7.45;;;5.07;;
7444;SDS011;3764;48.126;11.594;2024-01-30T03:18:38;8.05;;;5.43;;
7444;SDS011;3764;48.126;11.594;2024-01-30T03:21:05;5.60;;;4.70;;
7444;SDS011;3764;48.126;11.594;2024-01-30T03:23:32;10.88;;;5.53;;
7444;SDS011;3764;48.126;11.594;2024-01-30T03:26:00;9.60;;;5.93;;
7444;SDS011;3764;48.126;11.594;2024-01-30T03:28:29;6.22;;;4.72;;
7444;SDS011;3764;48.126;11.594;2024-01-30T03:30:58;6.97;;;4.35;;
7444;SDS011;3764;48.126;11.594;2024-01-30T03:33:25;8.18;;;5.65;;
7444;SDS011;3764;48.126;11.594;2024-01-30T03:35:53;6.20;;;5.18;;
7444;SDS011;3764;48.126;11.594;2024-01-30T03:38:20;8.60;;;5.50;;
7444;SDS011;3764;48.126;11.594;2024-01-30T03:40:47;7.30;;;5.45;;
7444;SDS011;3764;48.126;11.594;2024-01-30T03:43:15;10.10;;;5.50;;
7444;SDS011;3764;48.126;11.594;2024-01-30T03:45:42;6.38;;;4.30;;
7444;SDS011;3764;48.126;11.594;2024-01-30T03:48:10;5.63;;;5.07;;
7444;SDS011;3764;48.126;11.594;2024-01-30T03:50:37;5.80;;;4.78;;
7444;SDS011;3764;48.126;11.594;2024-01-30T03:53:05;5.60;;;4.20;;
7444;SDS011;3764;48.126;11.594;2024-01-30T03:55:32;7.00;;;5.20;;
7444;SDS011;3764;48.126;11.594;2024-01-30T03:57:59;5.72;;;3.97;;
7444;SDS011;3764;48.126;11.594;2024-01-30T04:00:27;5.75;;;4.13;;
7444;SDS011;3764;48.126;11.594;2024-01-30T04:02:54;5.95;;;4.35;;
7444;SDS011;3764;48.126;11.594;2024-01-30T04:05:22;4.70;;;3.60;;
7444;SDS011;3764;48.126;11.594;2024-01-30T04:07:50;5.65;;;4.40;;
7444;SDS011;3764;48.126;11.594;2024-01-30T04:10:17;5.63;;;4.20;;
7444;SDS011;3764;48.126;11.594;2024-01-30T04:12:44;5.55;;;4.35;;
7444;SDS011;3764;48.126;11.594;2024-01-30T04:15:11;6.07;;;3.97;;
7444;SDS011;3764;48.126;11.594;2024-01-30T04:17:39;4.53;;;3.72;;
7444;SDS011;3764;48.126;11.594;2024-01-30T04:20:13;7.80;;;4.50;;
7444;SDS011;3764;48.126;11.594;2024-01-30T04:22:43;6.68;;;3.85;;
7444;SDS011;3764;48.126;11.594;2024-01-30T04:25:11;4.57;;;4.10;;
7444;SDS011;3764;48.126;11.594;2024-01-30T04:27:38;7.32;;;4.15;;
7444;SDS011;3764;48.126;11.594;2024-01-30T04:30:06;7.28;;;4.40;;
7444;SDS011;3764;48.126;11.594;2024-01-30T04:32:34;5.38;;;4.03;;
7444;SDS011;3764;48.126;11.594;2024-01-30T04:35:02;5.15;;;4.30;;
7444;SDS011;3764;48.126;11.594;2024-01-30T04:37:30;8.10;;;4.15;;
7444;SDS011;3764;48.126;11.594;2024-01-30T04:39:59;6.18;;;4.13;;
7444;SDS011;3764;48.126;11.594;2024-01-30T04:42:26;5.88;;;4.78;;
7444;SDS011;3764;48.126;11.594;2024-01-30T04:44:53;5.40;;;3.80;;
7444;SDS011;3764;48.126;11.594;2024-01-30T04:47:20;6.00;;;4.22;;
7444;SDS011;3764;48.126;11.594;2024-01-30T04:49:47;8.57;;;4.50;;
7444;SDS011;3764;48.126;11.594;2024-01-30T04:52:15;5.63;;;4.10;;
7444;SDS011;3764;48.126;11.594;2024-01-30T04:54:43;6.05;;;4.32;;
7444;SDS011;3764;48.126;11.594;2024-01-30T04:57:11;6.75;;;4.88;;
7444;SDS011;3764;48.126;11.594;2024-01-30T04:59:39;5.45;;;3.97;;
7444;SDS011;3764;48.126;11.594;2024-01-30T05:02:06;5.35;;;4.07;;
7444;SDS011;3764;48.126;11.594;2024-01-30T05:04:33;5.47;;;4.43;;
7444;SDS011;3764;48.126;11.594;2024-01-30T05:07:00;6.22;;;4.30;;
7444;SDS011;3764;48.126;11.594;2024-01-30T05:09:28;5.10;;;4.07;;
7444;SDS011;3764;48.126;11.594;2024-01-30T05:11:55;5.18;;;3.92;;
7444;SDS011;3764;48.126;11.594;2024-01-30T05:14:24;6.45;;;4.20;;
7444;SDS011;3764;48.126;11.594;2024-01-30T05:16:51;8.57;;;4.57;;
7444;SDS011;3764;48.126;11.594;2024-01-30T05:19:18;5.57;;;4.15;;
7444;SDS011;3764;48.126;11.594;2024-01-30T05:21:48;5.30;;;4.15;;
7444;SDS011;3764;48.126;11.594;2024-01-30T05:24:15;7.32;;;4.03;;
7444;SDS011;3764;48.126;11.594;2024-01-30T05:26:42;6.22;;;4.10;;
7444;SDS011;3764;48.126;11.594;2024-01-30T05:29:09;8.60;;;4.55;;
7444;SDS011;3764;48.126;11.594;2024-01-30T05:31:38;4.63;;;3.80;;
7444;SDS011;3764;48.126;11.594;2024-01-30T05:34:05;5.22;;;4.25;;
7444;SDS011;3764;48.126;11.594;2024-01-30T05:36:34;6.13;;;5.03;;
7444;SDS011;3764;48.126;11.594;2024-01-30T05:39:01;5.07;;;4.45;;
7444;SDS011;3764;48.126;11.594;2024-01-30T05:41:28;6.35;;;4.63;;
7444;SDS011;3764;48.126;11.594;2024-01-30T05:43:56;6.60;;;4.03;;
7444;SDS011;3764;48.126;11.594;2024-01-30T05:46:23;5.55;;;3.88;;
7444;SDS011;3764;48.126;11.594;2024-01-30T05:48:52;6.32;;;3.88;;
7444;SDS011;3764;48.126;11.594;2024-01-30T05:51:19;5.03;;;4.47;;
7444;SDS011;3764;48.126;11.594;2024-01-30T05:53:46;3.85;;;3.53;;
7444;SDS011;3764;48.126;11.594;2024-01-30T05:56:13;5.18;;;4.68;;
7444;SDS011;3764;48.126;11.594;2024-01-30T05:58:41;5.97;;;4.38;;
7444;SDS011;3764;48.126;11.594;2024-01-30T06:01:09;3.95;;;3.30;;
7444;SDS011;3764;48.126;11.594;2024-01-30T06:03:36;5.72;;;3.80;;
7444;SDS011;3764;48.126;11.594;2024-01-30T06:06:05;4.20;;;3.40;;
7444;SDS011;3764;48.126;11.594;2024-01-30T06:08:33;4.88;;;3.35;;
7444;SDS011;3764;48.126;11.594;2024-01-30T06:11:00;4.28;;;3.38;;
7444;SDS011;3764;48.126;11.594;2024-01-30T06:13:27;3.50;;;3.20;;
7444;SDS011;3764;48.126;11.594;2024-01-30T06:15:57;3.72;;;2.85;;
7444;SDS011;3764;48.126;11.594;2024-01-30T06:18:24;4.00;;;3.55;;
7444;SDS011;3764;48.126;11.594;2024-01-30T06:20:52;4.57;;;3.53;;
7444;SDS011;3764;48.126;11.594;2024-01-30T06:23:21;4.68;;;3.92;;
7444;SDS011;3764;48.126;11.594;2024-01-30T06:25:48;4.75;;;3.83;;
7444;SDS011;3764;48.126;11.594;2024-01-30T06:28:15;7.07;;;3.97;;
7444;SDS011;3764;48.126;11.594;2024-01-30T06:30:42;6.50;;;3.47;;
7444;SDS011;3764;48.126;11.594;2024-01-30T06:33:11;6.57;;;4.43;;
7444;SDS011;3764;48.126;11.594;2024-01-30T06:35:39;10.25;;;5.40;;
7444;SDS011;3764;48.126;11.594;2024-01-30T06:38:07;6.50;;;3.72;;
7444;SDS011;3764;48.126;11.594;2024-01-30T06:40:36;5.45;;;4.07;;
7444;SDS011;3764;48.126;11.594;2024-01-30T06:43:04;5.40;;;3.92;;
7444;SDS011;3764;48.126;11.594;2024-01-30T06:45:33;6.72;;;4.15;;
7444;SDS011;3764;48.126;11.594;2024-01-30T06:48:00;4.20;;;3.70;;
7444;SDS011;3764;48.126;11.594;2024-01-30T06:50:28;3.58;;;2.97;;
7444;SDS011;3764;48.126;11.594;2024-01-30T06:52:55;6.72;;;4.28;;
7444;SDS011;3764;48.126;11.594;2024-01-30T06:55:22;4.15;;;3.78;;
7444;SDS011;3764;48.126;11.594;2024-01-30T06:57:50;5.03;;;3.30;;
7444;SDS011;3764;48.126;11.594;2024-01-30T07:00:18;5.18;;;3.25;;
7444;SDS011;3764;48.126;11.594;2024-01-30T07:02:46;4.15;;;3.75;;
7444;SDS011;3764;48.126;11.594;2024-01-30T07:05:13;4.55;;;3.92;;
7444;SDS011;3764;48.126;11.594;2024-01-30T07:07:42;5.30;;;4.03;;
7444;SDS011;3764;48.126;11.594;2024-01-30T07:10:09;6.90;;;4.10;;
7444;SDS011;3764;48.126;11.594;2024-01-30T07:12:37;10.43;;;4.18;;
7444;SDS011;3764;48.126;11.594;2024-01-30T07:15:06;5.25;;;4.10;;
7444;SDS011;3764;48.126;11.594;2024-01-30T07:17:34;6.70;;;4.32;;
7444;SDS011;3764;48.126;11.594;2024-01-30T07:20:02;5.43;;;3.92;;
7444;SDS011;3764;48.126;11.594;2024-01-30T07:22:31;4.25;;;3.40;;
7444;SDS011;3764;48.126;11.594;2024-01-30T07:24:58;4.85;;;3.70;;
7444;SDS011;3764;48.126;11.594;2024-01-30T07:27:26;6.43;;;3.90;;
7444;SDS011;3764;48.126;11.594;2024-01-30T07:29:53;4.57;;;3.75;;
7444;SDS011;3764;48.126;11.594;2024-01-30T07:32:21;6.03;;;3.63;;
7444;SDS011;3764;48.126;11.594;2024-01-30T07:34:49;4.95;;;3.28;;
7444;SDS011;3764;48.126;11.594;2024-01-30T07:37:16;4.65;;;3.00;;
7444;SDS011;3764;48.126;11.594;2024-01-30T07:39:43;6.22;;;3.00;;
7444;SDS011;3764;48.126;11.594;2024-01-30T07:42:10;4.30;;;2.58;;
7444;SDS011;3764;48.126;11.594;2024-01-30T07:44:37;9.57;;;3.53;;
7444;SDS011;3764;48.126;11.594;2024-01-30T07:47:04;5.60;;;3.55;;
7444;SDS011;3764;48.126;11.594;2024-01-30T07:49:34;7.82;;;3.65;;
7444;SDS011;3764;48.126;11.594;2024-01-30T07:52:01;9.25;;;4.35;;
7444;SDS011;3764;48.126;11.594;2024-01-30T07:54:31;9.18;;;3.85;;
7444;SDS011;3764;48.126;11.594;2024-01-30T07:57:00;8.80;;;3.20;;
7444;SDS011;3764;48.126;11.594;2024-01-30T07:59:27;6.40;;;4.22;;
7444;SDS011;3764;48.126;11.594;2024-01-30T08:01:54;5.03;;;3.97;;
7444;SDS011;3764;48.126;11.594;2024-01-30T08:04:21;9.98;;;3.95;;
7444;SDS011;3764;48.126;11.594;2024-01-30T08:06:50;5.38;;;4.20;;
7444;SDS011;3764;48.126;11.594;2024-01-30T08:09:17;8.05;;;3.40;;
7444;SDS011;3764;48.126;11.594;2024-01-30T08:11:44;5.38;;;3.95;;
7444;SDS011;3764;48.126;11.594;2024-01-30T08:14:11;6.10;;;3.65;;
7444;SDS011;3764;48.126;11.594;2024-01-30T08:16:39;6.07;;;3.70;;
7444;SDS011;3764;48.126;11.594;2024-01-30T08:19:06;8.10;;;3.67;;
7444;SDS011;3764;48.126;11.594;2024-01-30T08:21:34;14.48;;;4.40;;
7444;SDS011;3764;48.126;11.594;2024-01-30T08:24:04;5.05;;;3.50;;
7444;SDS011;3764;48.126;11.594;2024-01-30T08:26:32;7.47;;;3.47;;
7444;SDS011;3764;48.126;11.594;2024-01-30T08:28:59;5.47;;;3.40;;
7444;SDS011;3764;48.126;11.594;2024-01-30T08:31:27;4.57;;;3.00;;
7444;SDS011;3764;48.126;11.594;2024-01-30T08:33:54;5.47;;;3.42;;
7444;SDS011;3764;48.126;11.594;2024-01-30T08:36:22;3.78;;;3.38;;
7444;SDS011;3764;48.126;11.594;2024-01-30T08:38:49;4.70;;;3.80;;
7444;SDS011;3764;48.126;11.594;2024-01-30T08:41:18;5.38;;;4.80;;
7444;SDS011;3764;48.126;11.594;2024-01-30T08:43:45;7.05;;;3.75;;
7444;SDS011;3764;48.126;11.594;2024-01-30T08:46:12;6.30;;;3.80;;
7444;SDS011;3764;48.126;11.594;2024-01-30T08:48:40;5.05;;;3.67;;
7444;SDS011;3764;48.126;11.594;2024-01-30T08:51:07;8.32;;;4.60;;
7444;SDS011;3764;48.126;11.594;2024-01-30T08:53:35;4.80;;;3.80;;
7444;SDS011;3764;48.126;11.594;2024-01-30T08:56:02;6.53;;;4.55;;
7444;SDS011;3764;48.126;11.594;2024-01-30T08:58:31;5.70;;;4.03;;
7444;SDS011;3764;48.126;11.594;2024-01-30T09:00:58;6.30;;;3.97;;
7444;SDS011;3764;48.126;11.594;2024-01-30T09:03:25;14.07;;;6.20;;
7444;SDS011;3764;48.126;11.594;2024-01-30T09:05:53;4.68;;;3.97;;
7444;SDS011;3764;48.126;11.594;2024-01-30T09:08:19;9.80;;;3.95;;
7444;SDS011;3764;48.126;11.594;2024-01-30T09:10:46;6.95;;;4.85;;
7444;SDS011;3764;48.126;11.594;2024-01-30T09:13:13;6.35;;;3.95;;
7444;SDS011;3764;48.126;11.594;2024-01-30T09:15:42;8.77;;;4.30;;
7444;SDS011;3764;48.126;11.594;2024-01-30T09:18:09;6.53;;;3.85;;
7444;SDS011;3764;48.126;11.594;2024-01-30T09:20:36;6.82;;;4.30;;
7444;SDS011;3764;48.126;11.594;2024-01-30T09:23:03;6.35;;;4.43;;
7444;SDS011;3764;48.126;11.594;2024-01-30T09:25:31;6.43;;;4.28;;
7444;SDS011;3764;48.126;11.594;2024-01-30T09:27:59;6.80;;;4.15;;
7444;SDS011;3764;48.126;11.594;2024-01-30T09:30:26;9.20;;;4.97;;
7444;SDS011;3764;48.126;11.594;2024-01-30T09:32:55;8.10;;;4.85;;
7444;SDS011;3764;48.126;11.594;2024-01-30T09:35:22;7.97;;;4.65;;
7444;SDS011;3764;48.126;11.594;2024-01-30T09:37:49;5.55;;;4.38;;
7444;SDS011;3764;48.126;11.594;2024-01-30T09:40:16;5.72;;;4.55;;
7444;SDS011;3764;48.126;11.594;2024-01-30T09:42:44;5.00;;;4.20;;
7444;SDS011;3764;48.126;11.594;2024-01-30T09:45:15;5.07;;;3.53;;
7444;SDS011;3764;48.126;11.594;2024-01-30T09:47:45;6.38;;;3.60;;
7444;SDS011;3764;48.126;11.594;2024-01-30T09:50:14;3.60;;;3.13;;
7444;SDS011;3764;48.126;11.594;2024-01-30T09:52:42;10.35;;;3.90;;
7444;SDS011;3764;48.126;11.594;2024-01-30T09:55:10;4.40;;;3.90;;
7444;SDS011;3764;48.126;11.594;2024-01-30T09:57:37;6.47;;;3.38;;
7444;SDS011;3764;48.126;11.594;2024-01-30T10:00:06;5.60;;;4.10;;
7444;SDS011;3764;48.126;11.594;2024-01-30T10:02:34;6.53;;;4.28;;
7444;SDS011;3764;48.126;11.594;2024-01-30T10:05:01;6.70;;;3.80;;
7444;SDS011;3764;48.126;11.594;2024-01-30T10:07:30;4.47;;;3.08;;
7444;SDS011;3764;48.126;11.594;2024-01-30T10:09:58;4.30;;;3.40;;
7444;SDS011;3764;48.126;11.594;2024-01-30T10:12:26;5.97;;;4.45;;
7444;SDS011;3764;48.126;11.594;2024-01-30T10:14:55;5.22;;;3.50;;
7444;SDS011;3764;48.126;11.594;2024-01-30T10:17:24;4.85;;;3.95;;
7444;SDS011;3764;48.126;11.594;2024-01-30T10:19:52;5.10;;;3.85;;
7444;SDS011;3764;48.126;11.594;2024-01-30T10:22:19;7.15;;;4.20;;
7444;SDS011;3764;48.126;11.594;2024-01-30T10:24:48;5.40;;;3.45;;
7444;SDS011;3764;48.126;11.594;2024-01-30T10:27:15;5.68;;;3.88;;
7444;SDS011;3764;48.126;11.594;2024-01-30T10:29:43;5.63;;;3.85;;
7444;SDS011;3764;48.126;11.594;2024-01-30T10:32:10;5.40;;;3.80;;
7444;SDS011;3764;48.126;11.594;2024-01-30T10:34:37;11.27;;;3.90;;
7444;SDS011;3764;48.126;11.594;2024-01-30T10:37:07;4.30;;;3.40;;
7444;SDS011;3764;48.126;11.594;2024-01-30T10:39:38;7.38;;;3.50;;
7444;SDS011;3764;48.126;11.594;2024-01-30T10:42:10;2.97;;;2.30;;
7444;SDS011;3764;48.126;11.594;2024-01-30T10:44:41;6.45;;;3.35;;
7444;SDS011;3764;48.126;11.594;2024-01-30T10:47:12;2.78;;;2.30;;
7444;SDS011;3764;48.126;11.594;2024-01-30T10:49:41;4.18;;;2.65;;
7444;SDS011;3764;48.126;11.594;2024-01-30T10:52:09;6.95;;;3.10;;
7444;SDS011;3764;48.126;11.594;2024-01-30T10:54:38;3.00;;;2.67;;
7444;SDS011;3764;48.126;11.594;2024-01-30T10:57:10;6.40;;;2.42;;
7444;SDS011;3764;48.126;11.594;2024-01-30T10:59:38;4.63;;;2.45;;
7444;SDS011;3764;48.126;11.594;2024-01-30T11:02:06;2.25;;;2.05;;
7444;SDS011;3764;48.126;11.594;2024-01-30T11:04:37;4.40;;;3.40;;
7444;SDS011;3764;48.126;11.594;2024-01-30T11:07:13;6.28;;;2.33;;
7444;SDS011;3764;48.126;11.594;2024-01-30T11:09:48;8.75;;;3.13;;
7444;SDS011;3764;48.126;11.594;2024-01-30T11:12:20;6.32;;;3.67;;
7444;SDS011;3764;48.126;11.594;2024-01-30T11:14:49;5.32;;;4.80;;
7444;SDS011;3764;48.126;11.594;2024-01-30T11:17:28;4.65;;;4.15;;
7444;SDS011;3764;48.126;11.594;2024-01-30T11:20:09;8.52;;;4.45;;
7444;SDS011;3764;48.126;11.594;2024-01-30T11:22:37;7.22;;;4.70;;
7444;SDS011;3764;48.126;11.594;2024-01-30T11:25:04;5.97;;;3.65;;
7444;SDS011;3764;48.126;11.594;2024-01-30T11:27:33;8.05;;;3.92;;
7444;SDS011;3764;48.126;11.594;2024-01-30T11:30:01;5.68;;;3.17;;
7444;SDS011;3764;48.126;11.594;2024-01-30T11:32:29;6.45;;;3.15;;
7444;SDS011;3764;48.126;11.594;2024-01-30T11:34:56;8.73;;;3.65;;
7444;SDS011;3764;48.126;11.594;2024-01-30T11:37:24;3.95;;;2.70;;
7444;SDS011;3764;48.126;11.594;2024-01-30T11:39:53;5.22;;;2.45;;
7444;SDS011;3764;48.126;11.594;2024-01-30T11:42:23;3.67;;;2.50;;
7444;SDS011;3764;48.126;11.594;2024-01-30T11:44:52;4.20;;;2.50;;
7444;SDS011;3764;48.126;11.594;2024-01-30T11:47:19;3.60;;;1.90;;
7444;SDS011;3764;48.126;11.594;2024-01-30T11:49:47;3.15;;;2.13;;
7444;SDS011;3764;48.126;11.594;2024-01-30T11:52:14;2.80;;;1.77;;
7444;SDS011;3764;48.126;11.594;2024-01-30T11:54:41;4.53;;;2.22;;
7444;SDS011;3764;48.126;11.594;2024-01-30T11:57:09;4.15;;;3.35;;
7444;SDS011;3764;48.126;11.594;2024-01-30T11:59:37;4.47;;;3.10;;
7444;SDS011;3764;48.126;11.594;2024-01-30T12:02:05;4.68;;;2.60;;
7444;SDS011;3764;48.126;11.594;2024-01-30T12:04:33;3.95;;;2.50;;
7444;SDS011;3764;48.126;11.594;2024-01-30T12:07:00;2.40;;;1.90;;
7444;SDS011;3764;48.126;11.594;2024-01-30T12:09:28;3.17;;;2.33;;
7444;SDS011;3764;48.126;11.594;2024-01-30T12:11:55;7.03;;;2.95;;
7444;SDS011;3764;48.126;11.594;2024-01-30T12:14:22;4.57;;;2.80;;
7444;SDS011;3764;48.126;11.594;2024-01-30T12:16:50;6.97;;;2.33;;
7444;SDS011;3764;48.126;11.594;2024-01-30T12:19:22;2.70;;;1.90;;
7444;SDS011;3764;48.126;11.594;2024-01-30T12:21:53;2.55;;;1.83;;
7444;SDS011;3764;48.126;11.594;2024-01-30T12:24:22;2.67;;;2.05;;
7444;SDS011;3764;48.126;11.594;2024-01-30T12:26:49;1.75;;;1.58;;
7444;SDS011;3764;48.126;11.594;2024-01-30T12:29:19;2.13;;;1.90;;
7444;SDS011;3764;48.126;11.594;2024-01-30T12:31:47;2.13;;;1.73;;
7444;SDS011;3764;48.126;11.594;2024-01-30T12:34:14;2.58;;;1.95;;
7444;SDS011;3764;48.126;11.594;2024-01-30T12:36:43;4.60;;;2.05;;
7444;SDS011;3764;48.126;11.594;2024-01-30T12:39:11;4.18;;;2.40;;
7444;SDS011;3764;48.126;11.594;2024-01-30T12:41:39;6.90;;;2.53;;
7444;SDS011;3764;48.126;11.594;2024-01-30T12:44:07;6.72;;;4.00;;
7444;SDS011;3764;48.126;11.594;2024-01-30T12:46:34;4.82;;;2.80;;
7444;SDS011;3764;48.126;11.594;2024-01-30T12:49:02;2.97;;;2.40;;
7444;SDS011;3764;48.126;11.594;2024-01-30T12:51:29;3.08;;;2.25;;
7444;SDS011;3764;48.126;11.594;2024-01-30T12:53:57;2.20;;;2.00;;
7444;SDS011;3764;48.126;11.594;2024-01-30T12:56:25;2.28;;;1.90;;
7444;SDS011;3764;48.126;11.594;2024-01-30T12:58:52;3.90;;;2.47;;
7444;SDS011;3764;48.126;11.594;2024-01-30T13:01:19;4.28;;;2.17;;
7444;SDS011;3764;48.126;11.594;2024-01-30T13:03:47;3.33;;;2.15;;
7444;SDS011;3764;48.126;11.594;2024-01-30T13:06:14;3.92;;;2.45;;
7444;SDS011;3764;48.126;11.594;2024-01-30T13:08:41;5.70;;;2.78;;
7444;SDS011;3764;48.126;11.594;2024-01-30T13:11:10;4.82;;;2.45;;
7444;SDS011;3764;48.126;11.594;2024-01-30T13:13:37;3.38;;;2.40;;
7444;SDS011;3764;48.126;11.594;2024-01-30T13:16:05;5.18;;;2.45;;
7444;SDS011;3764;48.126;11.594;2024-01-30T13:18:32;3.20;;;2.17;;
7444;SDS011;3764;48.126;11.594;2024-01-30T13:21:00;4.30;;;3.20;;
7444;SDS011;3764;48.126;11.594;2024-01-30T13:23:28;4.18;;;3.10;;
7444;SDS011;3764;48.126;11.594;2024-01-30T13:25:55;4.18;;;2.50;;
7444;SDS011;3764;48.126;11.594;2024-01-30T13:28:25;5.82;;;3.30;;
7444;SDS011;3764;48.126;11.594;2024-01-30T13:30:52;3.28;;;2.30;;
7444;SDS011;3764;48.126;11.594;2024-01-30T13:33:19;2.55;;;2.00;;
7444;SDS011;3764;48.126;11.594;2024-01-30T13:35:47;3.38;;;2.47;;
7444;SDS011;3764;48.126;11.594;2024-01-30T13:38:14;3.75;;;2.30;;
7444;SDS011;3764;48.126;11.594;2024-01-30T13:40:41;4.80;;;2.65;;
7444;SDS011;3764;48.126;11.594;2024-01-30T13:43:08;3.10;;;2.38;;
7444;SDS011;3764;48.126;11.594;2024-01-30T13:45:37;2.90;;;2.35;;
7444;SDS011;3764;48.126;11.594;2024-01-30T13:48:04;3.95;;;2.20;;
7444;SDS011;3764;48.126;11.594;2024-01-30T13:50:32;3.65;;;1.90;;
7444;SDS011;3764;48.126;11.594;2024-01-30T13:52:59;2.05;;;1.40;;
7444;SDS011;3764;48.126;11.594;2024-01-30T13:55:28;2.88;;;1.95;;
7444;SDS011;3764;48.126;11.594;2024-01-30T13:57:55;3.35;;;2.30;;
7444;SDS011;3764;48.126;11.594;2024-01-30T14:00:23;3.13;;;2.00;;
7444;SDS011;3764;48.126;11.594;2024-01-30T14:02:52;2.78;;;1.60;;
7444;SDS011;3764;48.126;11.594;2024-01-30T14:05:20;2.80;;;1.70;;
7444;SDS011;3764;48.126;11.594;2024-01-30T14:07:47;5.00;;;1.80;;
7444;SDS011;3764;48.126;11.594;2024-01-30T14:10:15;6.95;;;2.20;;
7444;SDS011;3764;48.126;11.594;2024-01-30T14:12:43;2.60;;;1.90;;
7444;SDS011;3764;48.126;11.594;2024-01-30T14:15:10;3.22;;;2.00;;
7444;SDS011;3764;48.126;11.594;2024-01-30T14:17:38;8.95;;;2.30;;
7444;SDS011;3764;48.126;11.594;2024-01-30T14:20:07;2.20;;;2.00;;
7444;SDS011;3764;48.126;11.594;2024-01-30T14:22:35;4.13;;;2.10;;
7444;SDS011;3764;48.126;11.594;2024-01-30T14:25:03;6.28;;;3.95;;
7444;SDS011;3764;48.126;11.594;2024-01-30T14:27:31;4.43;;;2.47;;
7444;SDS011;3764;48.126;11.594;2024-01-30T14:29:58;4.22;;;2.28;;
7444;SDS011;3764;48.126;11.594;2024-01-30T14:32:25;4.03;;;2.40;;
7444;SDS011;3764;48.126;11.594;2024-01-30T14:34:53;5.50;;;2.60;;
7444;SDS011;3764;48.126;11.594;2024-01-30T14:37:21;3.15;;;2.40;;
7444;SDS011;3764;48.126;11.594;2024-01-30T14:39:49;3.50;;;2.00;;
7444;SDS011;3764;48.126;11.594;2024-01-30T14:42:16;3.55;;;2.05;;
7444;SDS011;3764;48.126;11.594;2024-01-30T14:44:43;2.40;;;1.95;;
7444;SDS011;3764;48.126;11.594;2024-01-30T14:47:10;5.38;;;2.80;;
7444;SDS011;3764;48.126;11.594;2024-01-30T14:49:38;3.30;;;2.10;;
7444;SDS011;3764;48.126;11.594;2024-01-30T14:52:05;3.05;;;2.25;;
7444;SDS011;3764;48.126;11.594;2024-01-30T14:54:36;2.70;;;1.90;;
7444;SDS011;3764;48.126;11.594;2024-01-30T14:57:03;6.13;;;2.58;;
7444;SDS011;3764;48.126;11.594;2024-01-30T14:59:31;2.55;;;2.28;;
7444;SDS011;3764;48.126;11.594;2024-01-30T15:01:59;3.42;;;2.28;;
7444;SDS011;3764;48.126;11.594;2024-01-30T15:04:26;3.50;;;2.17;;